createdAt,value
2018-11-26T00:01:45.454Z,100322.44
2018-11-26T00:04:13.874Z,100317.67
2018-11-26T00:06:42.370Z,100314.65
2018-11-26T00:09:14.969Z,100309.45
2018-11-26T00:11:44.902Z,100307.31
2018-11-26T00:14:13.451Z,100315.09
2018-11-26T00:16:45.943Z,100307.73
2018-11-26T00:19:14.409Z,100308.59
2018-11-26T00:22:00.606Z,100309.92
2018-11-26T00:24:35.861Z,100309.49
2018-11-26T00:27:04.546Z,100298.70
2018-11-26T00:29:38.113Z,100305.59
2018-11-26T00:32:13.595Z,100301.70
2018-11-26T00:34:42.137Z,100298.69
2018-11-26T00:37:15.661Z,100297.81
2018-11-26T00:42:19.213Z,100290.45
2018-11-26T00:44:47.644Z,100291.75
2018-11-26T00:47:16.069Z,100290.04
2018-11-26T00:49:44.693Z,100284.84
2018-11-26T00:52:13.220Z,100283.52
2018-11-26T00:54:41.698Z,100288.30
2018-11-26T00:57:10.185Z,100277.91
2018-11-26T00:59:38.733Z,100286.97
2018-11-26T01:02:11.520Z,100279.21
2018-11-26T01:04:40.917Z,100279.61
2018-11-26T01:07:09.520Z,100274.42
2018-11-26T01:09:38.004Z,100279.62
2018-11-26T01:12:10.489Z,100275.27
2018-11-26T01:14:39.188Z,100277.46
2018-11-26T01:17:07.629Z,100282.66
2018-11-26T01:19:36.129Z,100280.91
2018-11-26T01:22:04.564Z,100288.71
2018-11-26T01:24:37.185Z,100284.80
2018-11-26T01:27:05.947Z,100289.53
2018-11-26T01:29:34.388Z,100287.36
2018-11-26T01:32:07.924Z,100293.41
2018-11-26T01:34:40.026Z,100294.72
2018-11-26T01:37:08.584Z,100295.55
2018-11-26T01:39:37.062Z,100298.61
2018-11-26T01:42:05.464Z,100297.76
2018-11-26T01:44:33.909Z,100302.08
2018-11-26T01:47:30.133Z,100300.33
2018-11-26T01:49:58.533Z,100302.50
2018-11-26T01:52:30.984Z,100305.55
2018-11-26T01:54:59.454Z,100302.08
2018-11-26T02:00:36.553Z,100302.91
2018-11-26T02:03:04.981Z,100305.06
2018-11-26T02:05:33.537Z,100303.77
2018-11-26T02:08:01.952Z,100302.91
2018-11-26T02:10:30.358Z,100296.87
2018-11-26T02:12:58.801Z,100294.25
2018-11-26T02:15:36.529Z,100296.84
2018-11-26T02:18:05.019Z,100292.07
2018-11-26T02:20:33.706Z,100290.80
2018-11-26T02:23:02.126Z,100289.49
2018-11-26T02:25:30.682Z,100289.05
2018-11-26T02:27:59.156Z,100291.66
2018-11-26T02:30:27.853Z,100297.27
2018-11-26T02:32:56.274Z,100302.04
2018-11-26T02:35:26.498Z,100294.72
2018-11-26T02:37:56.946Z,100290.81
2018-11-26T02:40:33.045Z,100290.81
2018-11-26T02:43:06.468Z,100285.63
2018-11-26T02:45:34.892Z,100286.95
2018-11-26T02:48:03.314Z,100291.26
2018-11-26T02:50:33.613Z,100296.45
2018-11-26T02:53:02.031Z,100299.05
2018-11-26T02:55:30.444Z,100287.81
2018-11-26T02:57:58.896Z,100292.58
2018-11-26T03:00:27.568Z,100291.72
2018-11-26T03:02:56.039Z,100292.11
2018-11-26T03:05:27.107Z,100292.14
2018-11-26T03:07:55.676Z,100286.49
2018-11-26T03:10:25.038Z,100291.69
2018-11-26T03:13:01.973Z,100288.67
2018-11-26T03:15:30.678Z,100286.49
2018-11-26T03:17:59.397Z,100286.07
2018-11-26T03:20:32.770Z,100290.84
2018-11-26T03:23:01.169Z,100291.27
2018-11-26T03:25:29.877Z,100285.19
2018-11-26T03:28:03.402Z,100286.05
2018-11-26T03:33:08.871Z,100286.47
2018-11-26T03:35:37.328Z,100286.05
2018-11-26T03:38:20.889Z,100284.33
2018-11-26T03:40:54.539Z,100288.64
2018-11-26T03:43:22.958Z,100285.20
2018-11-26T03:45:56.513Z,100288.23
2018-11-26T03:48:28.749Z,100293.44
2018-11-26T03:50:57.368Z,100298.17
2018-11-26T03:53:26.374Z,100290.84
2018-11-26T03:55:55.113Z,100292.98
2018-11-26T03:58:23.515Z,100295.61
2018-11-26T04:00:53.964Z,100294.31
2018-11-26T04:03:22.435Z,100296.88
2018-11-26T04:05:50.897Z,100296.03
2018-11-26T04:08:19.320Z,100296.45
2018-11-26T04:10:47.888Z,100292.58
2018-11-26T04:16:32.904Z,100292.55
2018-11-26T04:19:06.387Z,100289.98
2018-11-26T04:21:34.913Z,100295.63
2018-11-26T04:24:03.548Z,100295.17
2018-11-26T04:26:32.198Z,100295.63
2018-11-26T04:29:02.763Z,100300.37
2018-11-26T04:31:31.299Z,100296.92
2018-11-26T04:34:02.778Z,100293.47
2018-11-26T04:36:33.330Z,100297.37
2018-11-26T04:39:01.765Z,100293.45
2018-11-26T04:41:35.266Z,100290.88
2018-11-26T05:04:13.885Z,100290.88
2018-11-26T05:06:42.249Z,100285.25
2018-11-26T05:09:10.713Z,100284.83
2018-11-26T05:11:39.109Z,100289.16
2018-11-26T05:17:05.516Z,100283.09
2018-11-26T05:19:54.383Z,100285.70
2018-11-26T05:22:22.945Z,100286.16
2018-11-26T05:24:52.362Z,100284.86
2018-11-26T05:27:20.782Z,100287.91
2018-11-26T05:29:49.250Z,100295.25
2018-11-26T05:32:17.689Z,100290.06
2018-11-26T05:34:46.062Z,100293.09
2018-11-26T05:41:33.584Z,100287.46
2018-11-26T05:44:01.982Z,100292.22
2018-11-26T05:46:30.433Z,100293.09
2018-11-26T05:49:08.342Z,100290.95
2018-11-26T05:52:11.153Z,100293.95
2018-11-26T05:54:39.615Z,100291.36
2018-11-26T05:57:08.088Z,100290.95
2018-11-26T05:59:36.706Z,100300.02
2018-11-26T06:02:05.216Z,100301.34
2018-11-26T06:04:44.227Z,100297.45
2018-11-26T06:07:14.594Z,100303.06
2018-11-26T06:09:43.141Z,100304.37
2018-11-26T06:12:11.607Z,100302.20
2018-11-26T06:14:40.101Z,100304.77
2018-11-26T06:17:09.902Z,100306.95
2018-11-26T06:19:38.366Z,100310.38
2018-11-26T06:22:06.848Z,100314.72
2018-11-26T06:24:35.227Z,100309.10
2018-11-26T06:27:03.719Z,100310.42
2018-11-26T06:29:32.153Z,100319.92
2018-11-26T06:32:00.637Z,100312.14
2018-11-26T06:34:29.203Z,100310.84
2018-11-26T06:36:57.654Z,100313.02
2018-11-26T06:39:26.087Z,100310.84
2018-11-26T06:41:54.720Z,100316.47
2018-11-26T06:44:23.195Z,100322.50
2018-11-26T06:46:51.758Z,100336.79
2018-11-26T06:49:20.572Z,100338.08
2018-11-26T06:51:49.124Z,100345.43
2018-11-26T06:54:17.933Z,100349.78
2018-11-26T06:56:50.418Z,100341.53
2018-11-26T06:59:21.950Z,100343.70
2018-11-26T07:01:51.690Z,100351.08
2018-11-26T07:04:26.868Z,100355.37
2018-11-26T07:06:55.271Z,100361.02
2018-11-26T07:09:25.730Z,100346.31
2018-11-26T07:12:10.936Z,100356.24
2018-11-26T07:14:39.393Z,100355.39
2018-11-26T07:17:07.810Z,100360.59
2018-11-26T07:19:53.761Z,100363.19
2018-11-26T07:22:24.405Z,100364.46
2018-11-26T07:24:59.621Z,100364.48
2018-11-26T07:27:33.847Z,100367.95
2018-11-26T07:30:02.270Z,100366.66
2018-11-26T07:32:30.777Z,100367.48
2018-11-26T07:34:59.363Z,100377.89
2018-11-26T07:37:27.759Z,100380.04
2018-11-26T07:39:56.174Z,100383.95
2018-11-26T07:42:24.657Z,100383.06
2018-11-26T07:44:53.333Z,100387.39
2018-11-26T07:47:21.856Z,100393.00
2018-11-26T07:49:50.502Z,100397.78
2018-11-26T07:52:27.263Z,100392.59
2018-11-26T07:54:55.650Z,100394.73
2018-11-26T07:57:24.121Z,100404.27
2018-11-26T07:59:59.288Z,100404.27
2018-11-26T08:02:27.845Z,100404.70
2018-11-26T08:04:56.234Z,100409.45
2018-11-26T08:07:24.672Z,100412.48
2018-11-26T08:09:53.091Z,100410.77
2018-11-26T08:12:28.078Z,100411.16
2018-11-26T08:14:56.586Z,100410.30
2018-11-26T08:17:25.056Z,100411.16
2018-11-26T08:19:53.675Z,100418.52
2018-11-26T08:22:22.178Z,100413.73
2018-11-26T08:24:50.657Z,100425.44
2018-11-26T08:27:19.185Z,100421.53
2018-11-26T08:29:47.661Z,100428.91
2018-11-26T08:33:12.457Z,100428.03
2018-11-26T08:35:40.879Z,100433.20
2018-11-26T08:38:14.655Z,100436.67
2018-11-26T08:40:48.318Z,100437.53
2018-11-26T08:43:21.989Z,100444.02
2018-11-26T08:46:02.347Z,100452.68
2018-11-26T08:48:31.595Z,100458.28
2018-11-26T08:51:01.099Z,100448.77
2018-11-26T08:53:29.744Z,100452.24
2018-11-26T08:55:58.346Z,100454.81
2018-11-26T08:58:30.029Z,100459.58
2018-11-26T09:01:05.436Z,100460.88
2018-11-26T09:03:35.790Z,100466.94
2018-11-26T09:06:09.375Z,100468.67
2018-11-26T09:08:38.405Z,100469.52
2018-11-26T09:11:08.819Z,100479.47
2018-11-26T09:13:37.526Z,100475.58
2018-11-26T09:16:06.235Z,100481.21
2018-11-26T09:18:34.649Z,100489.42
2018-11-26T09:21:03.105Z,100488.14
2018-11-26T09:23:31.509Z,100489.89
2018-11-26T09:26:00.072Z,100492.91
2018-11-26T09:28:28.583Z,100500.27
2018-11-26T09:30:57.045Z,100493.34
2018-11-26T09:33:25.450Z,100497.23
2018-11-26T09:35:54.168Z,100496.78
2018-11-26T09:38:22.668Z,100505.02
2018-11-26T09:40:51.302Z,100505.02
2018-11-26T09:43:19.749Z,100503.72
2018-11-26T09:45:49.242Z,100508.05
2018-11-26T09:48:17.849Z,100506.73
2018-11-26T09:50:46.334Z,100507.16
2018-11-26T09:53:14.885Z,100501.52
2018-11-26T09:55:43.401Z,100508.02
2018-11-26T09:58:11.955Z,100512.33
2018-11-26T10:00:40.514Z,100511.45
2018-11-26T10:03:08.978Z,100512.30
2018-11-26T10:05:37.492Z,100516.20
2018-11-26T10:08:06.377Z,100517.05
2018-11-26T10:10:34.851Z,100515.75
2018-11-26T10:13:08.301Z,100513.59
2018-11-26T10:15:36.713Z,100515.75
2018-11-26T10:18:15.517Z,100511.86
2018-11-26T10:20:43.924Z,100507.51
2018-11-26T10:23:12.373Z,100519.20
2018-11-26T10:25:40.781Z,100514.02
2018-11-26T10:28:24.989Z,100507.95
2018-11-26T10:30:53.416Z,100515.76
2018-11-26T10:33:21.862Z,100510.98
2018-11-26T10:35:50.464Z,100507.92
2018-11-26T10:38:19.287Z,100517.02
2018-11-26T10:40:47.843Z,100513.56
2018-11-26T10:43:16.243Z,100512.66
2018-11-26T10:45:44.693Z,100510.06
2018-11-26T10:48:13.367Z,100510.46
2018-11-26T10:50:41.784Z,100506.58
2018-11-26T10:53:11.275Z,100516.12
2018-11-26T10:55:39.923Z,100515.24
2018-11-26T10:58:08.589Z,100513.95
2018-11-26T11:00:45.174Z,100503.52
2018-11-26T11:03:13.730Z,100510.05
2018-11-26T11:05:42.209Z,100513.06
2018-11-26T11:08:15.732Z,100513.95
2018-11-26T11:10:44.245Z,100521.32
2018-11-26T11:19:43.111Z,100526.52
2018-11-26T11:22:16.560Z,100519.98
2018-11-26T11:24:50.000Z,100522.13
2018-11-26T11:27:20.473Z,100513.00
2018-11-26T11:29:48.930Z,100520.36
2018-11-26T11:32:17.394Z,100522.52
2018-11-26T11:37:54.014Z,100518.56
2018-11-26T11:40:29.396Z,100520.33
2018-11-26T11:43:03.628Z,100513.77
2018-11-26T11:45:34.461Z,100507.27
2018-11-26T11:48:02.935Z,100504.19
2018-11-26T11:50:31.520Z,100504.64
2018-11-26T11:53:00.087Z,100507.24
2018-11-26T11:55:28.642Z,100500.73
2018-11-26T11:58:02.940Z,100502.86
2018-11-26T12:00:35.059Z,100500.66
2018-11-26T12:03:08.968Z,100499.77
2018-11-26T12:05:37.602Z,100500.23
2018-11-26T12:08:07.451Z,100501.08
2018-11-26T12:10:36.237Z,100503.27
2018-11-26T12:13:04.954Z,100502.38
2018-11-26T12:15:33.412Z,100502.36
2018-11-26T12:18:03.870Z,100505.41
2018-11-26T12:20:55.773Z,100510.59
2018-11-26T12:23:24.221Z,100509.31
2018-11-26T12:25:56.933Z,100501.95
2018-11-26T12:28:25.391Z,100500.63
2018-11-26T12:31:00.242Z,100494.97
2018-11-26T12:33:30.524Z,100497.12
2018-11-26T12:35:59.106Z,100496.66
2018-11-26T12:38:27.616Z,100505.32
2018-11-26T12:40:56.400Z,100500.54
2018-11-26T12:43:32.401Z,100503.14
2018-11-26T12:49:05.650Z,100502.27
2018-11-26T12:51:34.068Z,100503.17
2018-11-26T12:54:02.525Z,100511.37
2018-11-26T12:56:30.955Z,100507.48
2018-11-26T12:59:01.260Z,100505.75
2018-11-26T13:01:29.653Z,100509.69
2018-11-26T13:04:12.254Z,100509.69
2018-11-26T13:06:44.767Z,100511.37
2018-11-26T13:09:13.486Z,100512.68
2018-11-26T13:11:41.932Z,100509.69
2018-11-26T13:14:10.435Z,100517.07
2018-11-26T13:16:39.042Z,100514.01
2018-11-26T13:19:07.603Z,100509.25
2018-11-26T13:21:41.664Z,100514.49
2018-11-26T13:24:44.143Z,100507.95
2018-11-26T13:27:12.758Z,100506.20
2018-11-26T13:29:41.414Z,100510.53
2018-11-26T13:32:09.873Z,100511.83
2018-11-26T13:34:38.564Z,100502.69
2018-11-26T13:37:07.116Z,100508.34
2018-11-26T13:39:39.626Z,100509.69
2018-11-26T13:42:08.170Z,100508.81
2018-11-26T13:44:41.709Z,100515.32
2018-11-26T13:47:10.184Z,100511.37
2018-11-26T13:49:38.731Z,100513.95
2018-11-26T13:52:07.206Z,100515.71
2018-11-26T13:54:35.909Z,100521.80
2018-11-26T13:57:04.372Z,100521.80
2018-11-26T13:59:34.150Z,100524.82
2018-11-26T14:02:04.386Z,100530.03
2018-11-26T14:04:33.671Z,100530.48
2018-11-26T14:07:07.504Z,100527.88
2018-11-26T14:09:35.937Z,100522.67
2018-11-26T14:12:04.436Z,100522.22
2018-11-26T14:14:37.038Z,100527.88
2018-11-26T14:17:10.596Z,100536.14
2018-11-26T14:19:50.794Z,100530.02
2018-11-26T14:22:19.246Z,100544.41
2018-11-26T14:24:47.795Z,100542.67
2018-11-26T14:27:16.228Z,100547.00
2018-11-26T14:29:47.861Z,100554.39
2018-11-26T14:32:16.283Z,100556.56
2018-11-26T14:34:44.922Z,100559.59
2018-11-26T14:37:13.534Z,100558.33
2018-11-26T14:39:42.302Z,100563.50
2018-11-26T14:42:10.869Z,100563.08
2018-11-26T14:44:50.460Z,100560.05
2018-11-26T14:47:23.880Z,100562.20
2018-11-26T14:49:55.645Z,100560.05
2018-11-26T14:52:24.238Z,100569.16
2018-11-26T14:54:52.694Z,100566.98
2018-11-26T14:57:21.328Z,100562.23
2018-11-26T14:59:50.056Z,100564.83
2018-11-26T15:02:18.636Z,100562.70
2018-11-26T15:04:47.123Z,100567.91
2018-11-26T15:07:15.766Z,100568.75
2018-11-26T15:09:44.525Z,100570.51
2018-11-26T15:12:13.038Z,100574.83
2018-11-26T15:14:41.508Z,100572.68
2018-11-26T15:17:10.012Z,100576.16
2018-11-26T15:19:38.475Z,100575.73
2018-11-26T15:22:07.227Z,100577.88
2018-11-26T15:24:35.725Z,100587.88
2018-11-26T15:27:04.300Z,100582.23
2018-11-26T15:29:32.812Z,100590.50
2018-11-26T15:32:01.334Z,100579.23
2018-11-26T15:34:29.849Z,100589.22
2018-11-26T15:36:58.376Z,100591.39
2018-11-26T15:39:26.793Z,100590.52
2018-11-26T15:41:55.260Z,100588.79
2018-11-26T15:47:16.198Z,100593.56
2018-11-26T15:49:44.684Z,100594.86
2018-11-26T15:52:13.119Z,100602.23
2018-11-26T15:54:42.147Z,100595.77
2018-11-26T15:59:50.089Z,100602.70
2018-11-26T16:02:18.523Z,100600.13
2018-11-26T16:04:49.972Z,100609.22
2018-11-26T16:07:18.499Z,100607.08
2018-11-26T16:09:47.114Z,100607.94
2018-11-26T16:12:19.658Z,100615.77
2018-11-26T16:14:48.157Z,100617.95
2018-11-26T16:17:21.555Z,100610.98
2018-11-26T16:19:50.221Z,100614.46
2018-11-26T16:22:18.930Z,100615.33
2018-11-26T16:24:48.559Z,100617.50
2018-11-26T16:27:17.022Z,100617.50
2018-11-26T16:29:48.817Z,100620.13
2018-11-26T16:32:17.521Z,100619.67
2018-11-26T16:34:45.984Z,100622.72
2018-11-26T16:37:14.605Z,100620.57
2018-11-26T16:39:43.097Z,100617.96
2018-11-26T16:42:11.698Z,100627.95
2018-11-26T16:44:45.151Z,100634.03
2018-11-26T16:47:13.747Z,100635.30
2018-11-26T16:49:45.255Z,100636.63
2018-11-26T16:52:13.680Z,100642.23
2018-11-26T16:54:46.332Z,100647.89
2018-11-26T16:57:14.845Z,100644.45
2018-11-26T16:59:43.274Z,100643.13
2018-11-26T17:02:11.875Z,100647.91
2018-11-26T17:04:45.935Z,100652.67
2018-11-26T17:07:14.441Z,100656.58
2018-11-26T17:09:43.558Z,100661.79
2018-11-26T17:12:12.223Z,100658.31
2018-11-26T17:14:40.961Z,100664.83
2018-11-26T17:17:09.934Z,100667.42
2018-11-26T17:19:38.982Z,100665.24
2018-11-26T17:22:08.554Z,100670.45
2018-11-26T17:25:00.263Z,100669.17
2018-11-26T17:27:29.104Z,100673.52
2018-11-26T17:29:57.568Z,100671.76
2018-11-26T17:32:26.117Z,100678.71
2018-11-26T17:34:54.557Z,100681.31
2018-11-26T17:37:23.013Z,100682.61
2018-11-26T17:39:51.548Z,100689.11
2018-11-26T17:42:43.892Z,100689.98
2018-11-26T17:45:16.990Z,100690.42
2018-11-26T17:47:54.730Z,100696.91
2018-11-26T17:50:27.615Z,100701.22
2018-11-26T17:52:56.147Z,100705.14
2018-11-26T17:55:24.819Z,100702.95
2018-11-26T17:57:53.563Z,100711.63
2018-11-26T18:00:27.948Z,100713.37
2018-11-26T18:02:56.638Z,100706.00
2018-11-26T18:05:27.793Z,100715.51
2018-11-26T18:08:01.057Z,100726.35
2018-11-26T18:10:29.826Z,100724.63
2018-11-26T18:12:58.298Z,100728.97
2018-11-26T18:15:30.845Z,100729.37
2018-11-26T18:17:59.778Z,100727.66
2018-11-26T18:20:28.266Z,100726.36
2018-11-26T18:23:00.777Z,100726.79
2018-11-26T18:25:29.315Z,100739.34
2018-11-26T18:28:12.120Z,100747.55
2018-11-26T18:30:46.086Z,100750.58
2018-11-26T18:33:18.627Z,100751.05
2018-11-26T18:35:48.365Z,100747.13
2018-11-26T18:38:17.275Z,100756.64
2018-11-26T18:40:47.243Z,100759.25
2018-11-26T18:43:31.374Z,100761.85
2018-11-26T18:46:04.035Z,100768.77
2018-11-26T18:48:32.577Z,100772.67
2018-11-26T18:51:01.347Z,100768.76
2018-11-26T18:53:29.875Z,100777.44
2018-11-26T18:55:58.605Z,100780.02
2018-11-26T18:58:27.227Z,100780.43
2018-11-26T19:00:58.213Z,100782.18
2018-11-26T19:03:27.662Z,100783.42
2018-11-26T19:05:58.077Z,100786.45
2018-11-26T19:08:26.635Z,100785.16
2018-11-26T19:10:59.215Z,100782.09
2018-11-26T19:13:34.575Z,100789.02
2018-11-26T19:16:17.434Z,100790.31
2018-11-26T19:19:00.979Z,100791.62
2018-11-26T19:21:29.659Z,100788.58
2018-11-26T19:23:58.286Z,100799.83
2018-11-26T19:26:58.792Z,100806.33
2018-11-26T19:29:27.555Z,100810.66
2018-11-26T19:31:57.454Z,100817.14
2018-11-26T19:34:28.745Z,100813.63
2018-11-26T19:36:57.395Z,100818.39
2018-11-26T19:39:26.089Z,100818.41
2018-11-26T19:41:54.634Z,100822.28
2018-11-26T19:44:23.752Z,100818.79
2018-11-26T19:46:52.671Z,100826.14
2018-11-26T19:49:21.166Z,100825.27
2018-11-26T19:51:49.633Z,100824.39
2018-11-26T19:54:18.300Z,100825.25
2018-11-26T19:56:46.913Z,100827.86
2018-11-26T19:59:15.528Z,100833.47
2018-11-26T20:01:44.144Z,100839.11
2018-11-26T20:04:22.650Z,100841.27
2018-11-26T20:06:51.126Z,100839.08
2018-11-26T20:09:19.813Z,100840.33
2018-11-26T20:11:48.519Z,100848.11
2018-11-26T20:14:26.073Z,100845.11
2018-11-26T20:16:52.978Z,100844.22
2018-11-26T20:19:21.594Z,100853.73
2018-11-26T20:21:50.226Z,100856.30
2018-11-26T20:24:20.705Z,100852.84
2018-11-26T20:26:49.338Z,100863.23
2018-11-26T20:29:18.014Z,100861.47
2018-11-26T20:31:47.221Z,100864.09
2018-11-26T20:34:15.938Z,100864.48
2018-11-26T20:36:44.443Z,100862.33
2018-11-26T20:39:13.277Z,100864.08
2018-11-26T20:41:42.033Z,100867.99
2018-11-26T20:44:10.717Z,100861.08
2018-11-26T20:46:49.026Z,100872.73
2018-11-26T20:49:12.182Z,100868.83
2018-11-26T20:51:40.690Z,100874.84
2018-11-26T20:54:09.284Z,100883.06
2018-11-26T20:56:41.803Z,100886.11
2018-11-26T20:59:10.521Z,100881.73
2018-11-26T21:01:39.192Z,100890.41
2018-11-26T21:04:07.766Z,100886.08
2018-11-26T21:06:39.318Z,100883.92
2018-11-26T21:09:08.986Z,100883.47
2018-11-26T21:14:21.402Z,100890.34
2018-11-26T21:16:45.715Z,100898.55
2018-11-26T21:19:14.183Z,100892.91
2018-11-26T21:21:42.702Z,100900.69
2018-11-26T21:24:11.180Z,100899.83
2018-11-26T21:26:40.750Z,100902.42
2018-11-26T21:29:09.518Z,100899.80
2018-11-26T21:31:38.433Z,100908.01
2018-11-26T21:34:07.182Z,100911.42
2018-11-26T21:36:40.684Z,100914.45
2018-11-26T21:39:10.779Z,100913.18
2018-11-26T21:41:39.264Z,100918.39
2018-11-26T21:44:07.809Z,100911.91
2018-11-26T21:46:38.156Z,100918.80
2018-11-26T21:49:06.743Z,100918.37
2018-11-26T21:51:35.381Z,100922.70
2018-11-26T21:54:04.139Z,100922.67
2018-11-26T21:56:32.724Z,100920.54
2018-11-26T21:59:01.318Z,100917.53
2018-11-26T22:01:29.879Z,100925.30
2018-11-26T22:03:58.315Z,100918.41
2018-11-26T22:06:27.438Z,100915.33
2018-11-26T22:12:08.747Z,100926.47
2018-11-26T22:14:37.263Z,100924.27
2018-11-26T22:17:06.716Z,100933.34
2018-11-26T22:19:38.188Z,100931.20
2018-11-26T22:22:06.866Z,100934.67
2018-11-26T22:24:35.468Z,100941.17
2018-11-26T22:27:04.000Z,100943.33
2018-11-26T22:29:32.413Z,100944.68
2018-11-26T22:32:01.098Z,100945.98
2018-11-26T22:34:29.850Z,100951.19
2018-11-26T22:37:03.098Z,100942.03
2018-11-26T22:39:32.024Z,100946.80
2018-11-26T22:44:37.447Z,100952.51
2018-11-26T22:47:06.625Z,100951.16
2018-11-26T22:49:35.070Z,100957.59
2018-11-26T22:52:03.603Z,100963.14
2018-11-26T22:54:32.113Z,100963.16
2018-11-26T22:57:00.592Z,100958.45
2018-11-26T22:59:29.091Z,100957.59
2018-11-26T23:01:57.521Z,100961.92
2018-11-26T23:04:26.226Z,100956.30
2018-11-26T23:06:54.872Z,100968.05
2018-11-26T23:09:23.715Z,100970.23
2018-11-26T23:11:52.267Z,100971.52
2018-11-26T23:14:20.873Z,100973.25
2018-11-26T23:16:53.374Z,100974.55
2018-11-26T23:19:21.823Z,100973.68
2018-11-26T23:21:50.492Z,100975.36
2018-11-26T23:24:18.782Z,100972.80
2018-11-26T23:26:47.341Z,100967.63
2018-11-26T23:29:16.018Z,100967.58
2018-11-26T23:31:50.556Z,100968.91
2018-11-26T23:34:19.122Z,100970.23
2018-11-26T23:36:47.522Z,100974.98
2018-11-26T23:39:16.256Z,100977.16
2018-11-26T23:41:44.696Z,100983.22
2018-11-26T23:44:13.169Z,100981.02
2018-11-26T23:46:45.831Z,100981.47
2018-11-26T23:49:14.262Z,100985.83
2018-11-26T23:51:49.481Z,100980.18
2018-11-26T23:54:17.917Z,100988.88
2018-11-26T23:56:46.605Z,100986.28
2018-11-26T23:59:15.164Z,100988.89
